Terminal Aerodrome Forecast
Issued by NWS

Home | Current Version | Previous Version | Text Only | Print | Product List | Glossary On
Versions: 1 2 3 4 5 6 7 8 9 10 11 12 13
000
FTUS42 KMLB 221100
TAFLEE
TAF
KLEE 221135Z 2212/2312 03005KT P6SM -RA FEW040 OVC090
     FM221600 07010G15KT P6SM VCSH BKN030 OVC070
     FM230000 08012G17KT P6SM -RA OVC015
     FM230300 08007KT 5SM -SHRA BR BKN008 OVC012=

USA.gov is the U.S. government's official web portal to all federal, state and local government web resources and services.